createdAt,value
2019-04-16T00:00:15.213Z,3.45
2019-04-16T00:02:43.815Z,3.45
2019-04-16T00:05:12.683Z,3.17
2019-04-16T00:07:42.485Z,3.22
2019-04-16T00:10:11.315Z,3.42
2019-04-16T00:12:39.959Z,3.12
2019-04-16T00:15:08.742Z,3.55
2019-04-16T00:17:37.394Z,3.30
2019-04-16T00:20:07.229Z,3.50
2019-04-16T00:22:35.964Z,3.20
2019-04-16T00:25:05.481Z,3.67
2019-04-16T00:27:34.126Z,3.25
2019-04-16T00:30:05.086Z,3.50
2019-04-16T00:32:34.015Z,3.22
2019-04-16T00:35:03.133Z,3.30
2019-04-16T00:37:31.809Z,3.40
2019-04-16T00:40:00.407Z,3.37
2019-04-16T00:42:29.063Z,2.80
2019-04-16T00:44:57.665Z,3.12
2019-04-16T00:47:26.261Z,3.40
2019-04-16T00:49:57.700Z,3.12
2019-04-16T00:52:25.283Z,3.20
2019-04-16T00:54:53.934Z,3.52
2019-04-16T00:57:22.576Z,3.20
2019-04-16T00:59:54.994Z,3.40
2019-04-16T01:02:21.546Z,3.33
2019-04-16T01:04:50.191Z,3.30
2019-04-16T01:07:18.842Z,3.02
2019-04-16T01:09:47.486Z,3.12
2019-04-16T01:12:16.132Z,2.95
2019-04-16T01:14:44.784Z,3.25
2019-04-16T01:17:13.387Z,3.30
2019-04-16T01:19:42.007Z,3.50
2019-04-16T01:22:10.799Z,3.22
2019-04-16T01:24:41.048Z,3.33
2019-04-16T01:27:09.903Z,3.50
2019-04-16T01:29:38.675Z,3.52
2019-04-16T01:32:10.541Z,3.70
2019-04-16T01:34:37.652Z,3.55
2019-04-16T01:37:06.304Z,3.40
2019-04-16T01:39:34.910Z,3.70
2019-04-16T01:42:03.512Z,3.70
2019-04-16T01:44:32.154Z,4.00
2019-04-16T01:47:03.369Z,3.65
2019-04-16T01:49:31.133Z,3.95
2019-04-16T01:51:59.739Z,4.12
2019-04-16T01:54:28.385Z,3.42
2019-04-16T01:56:59.912Z,4.12
2019-04-16T01:59:27.826Z,3.27
2019-04-16T02:01:56.499Z,3.85
2019-04-16T02:04:25.148Z,3.60
2019-04-16T02:06:54.373Z,3.85
2019-04-16T02:09:24.166Z,4.05
2019-04-16T02:11:52.819Z,3.80
2019-04-16T02:14:22.375Z,3.22
2019-04-16T02:16:55.792Z,3.92
2019-04-16T02:19:21.521Z,3.42
2019-04-16T02:21:50.176Z,3.62
2019-04-16T02:24:19.439Z,3.50
2019-04-16T02:26:48.187Z,3.40
2019-04-16T02:29:16.782Z,3.67
2019-04-16T02:31:47.862Z,3.58
2019-04-16T02:34:15.768Z,3.50
2019-04-16T02:36:44.372Z,3.80
2019-04-16T02:39:13.023Z,3.80
2019-04-16T02:41:41.671Z,3.37
2019-04-16T02:44:14.028Z,4.08
2019-04-16T02:46:40.642Z,3.90
2019-04-16T02:49:09.245Z,4.22
2019-04-16T02:51:41.350Z,4.12
2019-04-16T02:54:08.271Z,3.95
2019-04-16T02:56:37.180Z,3.95
2019-04-16T02:59:11.756Z,3.45
2019-04-16T03:01:36.888Z,3.60
2019-04-16T03:04:05.529Z,3.80
2019-04-16T03:06:34.301Z,3.52
2019-04-16T03:09:05.367Z,3.98
2019-04-16T03:11:34.806Z,4.25
2019-04-16T03:14:03.695Z,4.03
2019-04-16T03:16:32.408Z,3.95
2019-04-16T03:19:01.008Z,4.00
2019-04-16T03:21:29.672Z,4.03
2019-04-16T03:23:58.275Z,3.72
2019-04-16T03:26:26.924Z,4.03
2019-04-16T03:28:58.394Z,3.95
2019-04-16T03:31:25.918Z,4.17
2019-04-16T03:33:54.641Z,4.15
2019-04-16T03:36:23.288Z,4.10
2019-04-16T03:38:51.941Z,4.03
2019-04-16T03:41:20.546Z,4.33
2019-04-16T03:43:49.192Z,4.37
2019-04-16T03:46:17.839Z,4.15
2019-04-16T03:48:46.548Z,4.22
2019-04-16T03:51:15.202Z,4.45
2019-04-16T03:53:46.514Z,4.65
2019-04-16T03:56:14.218Z,4.83
2019-04-16T03:58:42.877Z,5.05
2019-04-16T04:01:14.222Z,4.58
2019-04-16T04:03:41.803Z,4.85
2019-04-16T04:06:10.452Z,5.10
2019-04-16T04:08:39.051Z,4.92
2019-04-16T04:11:10.407Z,5.03
2019-04-16T04:13:38.026Z,5.37
2019-04-16T04:16:06.837Z,4.83
2019-04-16T04:18:35.425Z,4.47
2019-04-16T04:21:04.142Z,5.10
2019-04-16T04:23:32.743Z,5.08
2019-04-16T04:26:01.396Z,4.83
2019-04-16T04:28:30.035Z,5.20
2019-04-16T04:31:01.016Z,4.72
2019-04-16T04:33:29.048Z,4.60
2019-04-16T04:35:57.702Z,4.70
2019-04-16T04:38:26.301Z,4.95
2019-04-16T04:40:54.946Z,4.87
2019-04-16T04:43:23.776Z,5.05
2019-04-16T04:45:52.376Z,4.92
2019-04-16T04:48:24.070Z,5.25
2019-04-16T04:50:51.467Z,5.50
2019-04-16T04:53:20.182Z,4.85
2019-04-16T04:55:48.897Z,5.55
2019-04-16T04:58:17.551Z,5.40
2019-04-16T05:00:46.152Z,5.30
2019-04-16T05:03:15.868Z,5.42
2019-04-16T05:05:45.140Z,5.12
2019-04-16T05:08:13.783Z,5.35
2019-04-16T05:10:43.418Z,4.85
2019-04-16T05:13:13.276Z,5.15
2019-04-16T05:15:42.003Z,5.17
2019-04-16T05:18:11.001Z,4.78
2019-04-16T05:20:39.730Z,5.15
2019-04-16T05:23:08.339Z,4.83
2019-04-16T05:25:36.937Z,5.25
2019-04-16T05:28:05.667Z,5.40
2019-04-16T05:30:34.739Z,4.70
2019-04-16T05:33:05.511Z,4.95
2019-04-16T05:35:33.794Z,5.50
2019-04-16T05:38:02.443Z,4.95
2019-04-16T05:40:34.215Z,5.20
2019-04-16T05:43:01.432Z,5.00
2019-04-16T05:45:30.036Z,5.10
2019-04-16T05:47:58.688Z,5.08
2019-04-16T05:50:29.641Z,4.62
2019-04-16T05:52:57.804Z,5.10
2019-04-16T05:55:26.403Z,5.00
2019-04-16T05:57:57.943Z,5.00
2019-04-16T06:00:25.548Z,4.90
2019-04-16T06:02:54.201Z,4.87
2019-04-16T06:05:26.769Z,4.60
2019-04-16T06:07:53.176Z,5.00
2019-04-16T06:10:21.773Z,4.85
2019-04-16T06:12:50.515Z,4.78
2019-04-16T06:15:22.296Z,4.75
2019-04-16T06:17:49.488Z,4.62
2019-04-16T06:20:20.764Z,4.87
2019-04-16T06:22:48.459Z,5.30
2019-04-16T06:25:17.140Z,4.65
2019-04-16T06:27:45.788Z,4.70
2019-04-16T06:30:14.818Z,5.10
2019-04-16T06:32:43.450Z,4.87
2019-04-16T06:35:12.172Z,4.40
2019-04-16T06:37:40.861Z,5.17
2019-04-16T06:40:09.470Z,5.22
2019-04-16T06:42:38.698Z,4.85
2019-04-16T06:45:08.560Z,5.35
2019-04-16T06:47:41.827Z,5.00
2019-04-16T06:50:07.745Z,5.00
2019-04-16T06:52:36.389Z,4.83
2019-04-16T06:55:06.329Z,5.05
2019-04-16T06:57:34.976Z,5.55
2019-04-16T07:00:07.150Z,5.28
2019-04-16T07:02:37.373Z,5.10
2019-04-16T07:05:06.480Z,4.80
2019-04-16T07:07:39.959Z,4.72
2019-04-16T07:10:05.994Z,4.97
2019-04-16T07:12:37.909Z,5.10
2019-04-16T07:15:07.463Z,5.05
2019-04-16T07:17:36.129Z,5.17
2019-04-16T07:20:06.736Z,4.85
2019-04-16T07:22:35.341Z,4.85
2019-04-16T07:25:06.657Z,5.30
2019-04-16T07:27:38.411Z,4.87
2019-04-16T07:30:08.835Z,5.20
2019-04-16T07:32:37.919Z,4.40
2019-04-16T07:35:07.389Z,4.83
2019-04-16T07:37:36.111Z,5.03
2019-04-16T07:40:10.256Z,4.97
2019-04-16T07:42:50.860Z,4.60
2019-04-16T07:45:11.456Z,4.95
2019-04-16T07:47:38.449Z,4.55
2019-04-16T07:50:07.682Z,4.95
2019-04-16T07:52:38.986Z,4.62
2019-04-16T07:55:07.170Z,4.78
2019-04-16T07:57:35.906Z,4.87
2019-04-16T08:00:09.801Z,4.92
2019-04-16T08:02:38.573Z,4.47
2019-04-16T08:05:09.135Z,4.53
2019-04-16T08:07:37.939Z,4.40
2019-04-16T08:10:06.922Z,4.72
2019-04-16T08:12:45.534Z,4.70
2019-04-16T08:15:15.501Z,4.83
2019-04-16T08:17:44.236Z,4.70
2019-04-16T08:20:13.130Z,4.65
2019-04-16T08:22:47.266Z,4.37
2019-04-16T08:25:12.208Z,4.40
2019-04-16T08:27:40.826Z,4.70
2019-04-16T08:30:10.147Z,4.25
2019-04-16T08:32:38.799Z,4.37
2019-04-16T08:35:07.566Z,4.95
2019-04-16T08:37:48.279Z,4.22
2019-04-16T08:40:08.987Z,4.35
2019-04-16T08:42:44.758Z,4.25
2019-04-16T08:45:09.640Z,3.90
2019-04-16T08:47:38.387Z,4.28
2019-04-16T08:50:07.290Z,4.50
2019-04-16T08:52:38.512Z,4.67
2019-04-16T08:55:06.476Z,5.10
2019-04-16T08:57:35.090Z,4.70
2019-04-16T09:00:06.903Z,4.83
2019-04-16T09:02:36.036Z,4.40
2019-04-16T09:05:10.917Z,5.47
2019-04-16T09:07:36.593Z,4.53
2019-04-16T09:10:17.641Z,5.10
2019-04-16T09:12:43.436Z,4.95
2019-04-16T09:15:10.529Z,5.12
2019-04-16T09:17:39.210Z,4.95
2019-04-16T09:20:09.113Z,4.67
2019-04-16T09:22:48.080Z,4.95
2019-04-16T09:25:12.525Z,5.30
2019-04-16T09:27:38.830Z,5.12
2019-04-16T09:30:10.346Z,5.17
2019-04-16T09:32:38.460Z,5.28
2019-04-16T09:35:10.777Z,5.20
2019-04-16T09:37:37.728Z,4.70
2019-04-16T09:40:16.597Z,4.95
2019-04-16T09:42:37.746Z,5.62
2019-04-16T09:45:07.591Z,5.37
2019-04-16T09:47:36.248Z,5.47
2019-04-16T09:50:09.642Z,5.72
2019-04-16T09:52:36.267Z,5.47
2019-04-16T09:55:05.718Z,6.15
2019-04-16T09:57:34.381Z,5.40
2019-04-16T10:00:08.476Z,5.12
2019-04-16T10:02:44.373Z,5.33
2019-04-16T10:05:17.119Z,5.12
2019-04-16T10:07:45.783Z,5.10
2019-04-16T10:10:14.500Z,5.03
2019-04-16T10:12:43.186Z,5.22
2019-04-16T10:15:12.511Z,5.03
2019-04-16T10:17:41.186Z,5.08
2019-04-16T10:20:09.998Z,5.22
2019-04-16T10:22:38.687Z,5.20
2019-04-16T10:25:07.812Z,5.17
2019-04-16T10:27:36.431Z,4.85
2019-04-16T10:30:07.231Z,5.35
2019-04-16T10:32:35.954Z,4.85
2019-04-16T10:35:05.376Z,4.42
2019-04-16T10:37:34.155Z,4.47
2019-04-16T10:40:10.315Z,4.58
2019-04-16T10:42:41.753Z,4.17
2019-04-16T10:45:12.913Z,5.20
2019-04-16T10:47:41.615Z,4.50
2019-04-16T10:50:10.995Z,5.20
2019-04-16T10:52:39.701Z,4.30
2019-04-16T10:55:12.176Z,5.22
2019-04-16T10:57:40.880Z,4.83
2019-04-16T11:00:10.465Z,5.45
2019-04-16T11:02:39.125Z,4.67
2019-04-16T11:05:08.334Z,4.83
2019-04-16T11:07:36.990Z,4.80
2019-04-16T11:10:06.994Z,4.87
2019-04-16T11:12:35.606Z,4.22
2019-04-16T11:15:05.227Z,4.42
2019-04-16T11:17:33.922Z,4.80
2019-04-16T11:20:03.209Z,4.97
2019-04-16T11:22:31.997Z,4.92
2019-04-16T11:25:00.722Z,5.22
2019-04-16T11:27:29.454Z,5.15
2019-04-16T11:29:58.077Z,5.20
2019-04-16T11:32:26.971Z,5.22
2019-04-16T11:34:55.988Z,5.37
2019-04-16T11:37:26.909Z,5.15
2019-04-16T11:39:58.451Z,4.60
2019-04-16T11:42:28.901Z,4.35
2019-04-16T11:44:57.532Z,4.42
2019-04-16T11:47:28.012Z,4.55
2019-04-16T11:49:56.532Z,4.95
2019-04-16T11:52:25.224Z,4.40
2019-04-16T11:54:53.960Z,4.47
2019-04-16T11:57:22.580Z,5.10
2019-04-16T12:00:05.800Z,4.45
2019-04-16T12:02:21.671Z,4.95
2019-04-16T12:04:50.376Z,4.47
2019-04-16T12:07:19.176Z,4.83
2019-04-16T12:09:47.907Z,5.08
2019-04-16T12:12:16.646Z,5.25
2019-04-16T12:14:45.305Z,4.80
2019-04-16T12:17:13.934Z,4.80
2019-04-16T12:19:44.785Z,4.47
2019-04-16T12:22:13.160Z,5.28
2019-04-16T12:24:41.881Z,4.58
2019-04-16T12:27:10.596Z,4.70
2019-04-16T12:29:39.228Z,4.78
2019-04-16T12:32:07.891Z,4.92
2019-04-16T12:34:36.625Z,4.47
2019-04-16T12:37:05.284Z,5.20
2019-04-16T12:39:35.829Z,4.95
2019-04-16T12:42:04.454Z,5.00
2019-04-16T12:44:44.570Z,4.97
2019-04-16T12:47:03.523Z,5.00
2019-04-16T12:49:32.369Z,5.03
2019-04-16T12:52:01.219Z,5.08
2019-04-16T12:54:30.214Z,4.70
2019-04-16T12:56:59.235Z,5.20
2019-04-16T12:59:27.976Z,5.22
2019-04-16T13:01:56.618Z,4.85
2019-04-16T13:04:25.548Z,4.95
2019-04-16T13:06:54.160Z,4.60
2019-04-16T13:09:22.862Z,5.28
2019-04-16T13:11:51.553Z,4.90
2019-04-16T13:14:20.282Z,5.05
2019-04-16T13:16:48.892Z,5.87
2019-04-16T13:19:17.629Z,5.03
2019-04-16T13:21:46.241Z,5.20
2019-04-16T13:24:15.287Z,4.78
2019-04-16T13:26:43.898Z,5.28
2019-04-16T13:29:12.915Z,5.45
2019-04-16T13:31:42.945Z,4.85
2019-04-16T13:34:11.629Z,5.15
2019-04-16T13:36:40.233Z,5.78
2019-04-16T13:39:10.253Z,5.53
2019-04-16T13:41:38.912Z,5.22
2019-04-16T13:44:08.986Z,5.83
2019-04-16T13:46:38.075Z,5.30
2019-04-16T13:49:06.842Z,5.67
2019-04-16T13:51:35.529Z,5.55
2019-04-16T13:54:04.431Z,5.33
2019-04-16T13:56:33.043Z,5.72
2019-04-16T13:59:01.706Z,5.75
2019-04-16T14:01:30.442Z,6.53
2019-04-16T14:03:59.276Z,6.03
2019-04-16T14:06:28.292Z,6.25
2019-04-16T14:08:56.947Z,6.12
2019-04-16T14:11:25.561Z,6.58
2019-04-16T14:13:54.387Z,6.53
2019-04-16T14:16:23.003Z,6.17
2019-04-16T14:18:51.613Z,6.78
2019-04-16T14:21:20.270Z,5.80
2019-04-16T14:23:48.894Z,7.22
2019-04-16T14:26:17.548Z,6.47
2019-04-16T14:28:52.295Z,6.40
2019-04-16T14:31:17.820Z,5.83
2019-04-16T14:33:46.648Z,6.50
2019-04-16T14:36:15.316Z,6.00
2019-04-16T14:38:43.921Z,6.25
2019-04-16T14:41:15.859Z,6.12
2019-04-16T14:43:42.917Z,6.53
2019-04-16T14:46:11.534Z,6.35
2019-04-16T14:48:45.184Z,6.08
2019-04-16T14:51:10.596Z,6.45
2019-04-16T14:53:39.257Z,6.65
2019-04-16T14:56:07.916Z,6.30
2019-04-16T14:58:36.531Z,6.50
2019-04-16T15:01:05.259Z,6.40
2019-04-16T15:03:33.872Z,6.15
2019-04-16T15:06:02.539Z,6.17
2019-04-16T15:08:31.138Z,6.17
2019-04-16T15:10:59.748Z,6.33
2019-04-16T15:13:28.478Z,7.30
2019-04-16T15:16:08.272Z,7.08
2019-04-16T15:18:27.484Z,6.33
2019-04-16T15:20:56.157Z,7.20
2019-04-16T15:23:24.828Z,6.83
2019-04-16T15:25:53.438Z,6.75
2019-04-16T15:28:22.101Z,7.25
2019-04-16T15:30:50.706Z,6.42
2019-04-16T15:33:19.364Z,6.87
2019-04-16T15:35:48.043Z,6.87
2019-04-16T15:38:16.876Z,7.05
2019-04-16T15:40:47.214Z,7.12
2019-04-16T15:43:19.288Z,7.05
2019-04-16T15:45:46.605Z,6.87
2019-04-16T15:48:18.038Z,7.00
2019-04-16T15:50:45.595Z,7.53
2019-04-16T15:53:14.262Z,6.55
2019-04-16T15:55:42.873Z,6.22
2019-04-16T15:58:11.535Z,7.05
2019-04-16T16:00:40.196Z,7.00
2019-04-16T16:03:08.802Z,6.50
2019-04-16T16:05:37.470Z,6.72
2019-04-16T16:08:06.150Z,6.50
2019-04-16T16:10:34.802Z,6.53
2019-04-16T16:13:03.775Z,6.70
2019-04-16T16:15:32.549Z,6.80
2019-04-16T16:18:01.352Z,6.30
2019-04-16T16:20:30.073Z,5.67
2019-04-16T16:22:59.499Z,5.78
2019-04-16T16:25:28.419Z,5.78
2019-04-16T16:27:57.079Z,5.30
2019-04-16T16:30:25.738Z,5.42
2019-04-16T16:32:54.676Z,6.00
2019-04-16T16:35:23.484Z,5.60
2019-04-16T16:37:52.165Z,5.05
2019-04-16T16:40:20.783Z,5.00
2019-04-16T16:42:49.478Z,4.95
2019-04-16T16:45:18.337Z,4.75
2019-04-16T16:47:46.996Z,5.22
2019-04-16T16:50:15.841Z,4.78
2019-04-16T16:52:44.743Z,4.65
2019-04-16T16:55:13.932Z,4.60
2019-04-16T16:57:42.598Z,4.53
2019-04-16T17:00:11.383Z,4.30
2019-04-16T17:02:39.996Z,5.45
2019-04-16T17:05:08.724Z,8.73
2019-04-16T17:07:37.400Z,8.03
2019-04-16T17:10:07.056Z,15.72
2019-04-16T17:12:35.662Z,7.80
2019-04-16T17:15:08.648Z,5.28
2019-04-16T17:17:36.699Z,4.75
2019-04-16T17:20:05.704Z,4.40
2019-04-16T17:22:34.366Z,4.60
2019-04-16T17:25:03.632Z,4.53
2019-04-16T17:27:32.281Z,4.62
2019-04-16T17:30:00.972Z,4.67
2019-04-16T17:32:29.630Z,4.40
2019-04-16T17:34:58.248Z,4.97
2019-04-16T17:37:28.664Z,4.40
2019-04-16T17:39:57.240Z,4.58
2019-04-16T17:42:25.900Z,4.45
2019-04-16T17:44:54.518Z,5.00
2019-04-16T17:47:31.781Z,5.25
2019-04-16T17:49:53.518Z,4.60
2019-04-16T17:52:22.314Z,5.12
2019-04-16T17:54:50.929Z,5.10
2019-04-16T17:57:22.913Z,4.40
2019-04-16T17:59:49.924Z,4.47
2019-04-16T18:02:18.590Z,4.60
2019-04-16T18:04:47.256Z,4.90
2019-04-16T18:07:15.870Z,5.62
2019-04-16T18:09:44.531Z,6.75
2019-04-16T18:12:13.187Z,6.65
2019-04-16T18:14:41.803Z,6.72
2019-04-16T18:17:10.606Z,7.30
2019-04-16T18:19:39.374Z,5.90
2019-04-16T18:22:07.987Z,6.83
2019-04-16T18:24:36.649Z,6.67
2019-04-16T18:27:05.335Z,5.97
2019-04-16T18:29:33.988Z,5.42
2019-04-16T18:32:02.601Z,5.85
2019-04-16T18:34:31.278Z,5.35
2019-04-16T18:37:00.106Z,5.33
2019-04-16T18:39:28.784Z,4.83
2019-04-16T18:41:57.496Z,4.87
2019-04-16T18:44:29.028Z,4.80
2019-04-16T18:46:56.632Z,4.83
2019-04-16T18:49:25.380Z,4.37
2019-04-16T18:51:54.044Z,5.10
2019-04-16T18:54:22.655Z,4.75
2019-04-16T18:56:51.534Z,4.80
2019-04-16T18:59:20.197Z,5.03
2019-04-16T19:01:49.475Z,4.87
2019-04-16T19:04:18.356Z,4.37
2019-04-16T19:06:47.136Z,4.70
2019-04-16T19:09:16.465Z,4.72
2019-04-16T19:11:45.074Z,4.85
2019-04-16T19:14:14.035Z,4.90
2019-04-16T19:16:42.869Z,5.08
2019-04-16T19:19:11.482Z,5.15
2019-04-16T19:21:42.375Z,4.97
2019-04-16T19:24:10.544Z,4.65
2019-04-16T19:26:39.205Z,4.90
2019-04-16T19:29:13.321Z,4.92
2019-04-16T19:31:38.278Z,4.92
2019-04-16T19:34:10.188Z,4.80
2019-04-16T19:36:37.430Z,5.12
2019-04-16T19:39:10.198Z,5.45
2019-04-16T19:41:37.089Z,5.17
2019-04-16T19:44:07.235Z,5.08
2019-04-16T19:46:36.088Z,5.00
2019-04-16T19:49:04.739Z,5.35
2019-04-16T19:51:33.349Z,4.78
2019-04-16T19:54:02.015Z,5.12
2019-04-16T19:56:33.450Z,4.92
2019-04-16T19:59:01.955Z,5.08
2019-04-16T20:01:30.565Z,4.83
2019-04-16T20:03:59.623Z,5.17
2019-04-16T20:06:28.409Z,5.67
2019-04-16T20:08:57.071Z,5.70
2019-04-16T20:11:25.686Z,7.00
2019-04-16T20:13:54.350Z,6.87
2019-04-16T20:16:22.957Z,5.60
2019-04-16T20:18:51.736Z,5.47
2019-04-16T20:21:20.412Z,5.90
2019-04-16T20:23:49.022Z,5.00
2019-04-16T20:26:17.677Z,5.00
2019-04-16T20:28:48.574Z,4.33
2019-04-16T20:31:16.681Z,4.90
2019-04-16T20:33:45.333Z,4.50
2019-04-16T20:36:13.992Z,4.70
2019-04-16T20:38:42.605Z,4.70
2019-04-16T20:41:11.259Z,4.28
2019-04-16T20:43:39.873Z,4.53
2019-04-16T20:46:08.532Z,4.20
2019-04-16T20:48:37.260Z,4.53
2019-04-16T20:51:06.133Z,4.12
2019-04-16T20:53:34.899Z,4.25
2019-04-16T20:56:03.703Z,4.10
2019-04-16T20:58:32.438Z,4.40
2019-04-16T21:01:01.183Z,4.22
2019-04-16T21:03:31.234Z,4.25
2019-04-16T21:06:00.290Z,4.12
2019-04-16T21:08:29.050Z,4.20
2019-04-16T21:10:59.790Z,4.15
2019-04-16T21:13:28.036Z,4.65
2019-04-16T21:15:57.217Z,4.55
2019-04-16T21:18:27.022Z,5.12
2019-04-16T21:20:55.696Z,4.67
2019-04-16T21:23:24.303Z,5.28
2019-04-16T21:25:52.913Z,4.83
2019-04-16T21:28:21.665Z,5.05
2019-04-16T21:30:50.379Z,4.80
2019-04-16T21:33:20.556Z,4.80
2019-04-16T21:35:49.402Z,4.20
2019-04-16T21:38:18.050Z,4.65
2019-04-16T21:40:46.659Z,4.95
2019-04-16T21:43:15.319Z,4.45
2019-04-16T21:45:45.634Z,4.90
2019-04-16T21:48:14.536Z,4.50
2019-04-16T21:50:44.513Z,4.33
2019-04-16T21:53:13.523Z,3.95
2019-04-16T21:55:42.174Z,3.98
2019-04-16T21:58:10.786Z,4.40
2019-04-16T22:00:39.442Z,4.28
2019-04-16T22:03:09.842Z,3.98
2019-04-16T22:05:38.663Z,4.40
2019-04-16T22:08:07.325Z,4.28
2019-04-16T22:10:35.998Z,4.55
2019-04-16T22:13:04.728Z,4.22
2019-04-16T22:15:33.375Z,3.90
2019-04-16T22:18:07.858Z,4.22
2019-04-16T22:20:35.819Z,4.28
2019-04-16T22:23:02.817Z,4.17
2019-04-16T22:25:31.470Z,4.50
2019-04-16T22:28:00.202Z,4.37
2019-04-16T22:30:28.858Z,4.50
2019-04-16T22:32:57.863Z,4.10
2019-04-16T22:35:26.562Z,4.20
2019-04-16T22:37:55.220Z,3.72
2019-04-16T22:40:23.873Z,3.95
2019-04-16T22:42:52.480Z,4.53
2019-04-16T22:45:21.130Z,4.10
2019-04-16T22:47:49.736Z,4.08
2019-04-16T22:50:18.448Z,4.42
2019-04-16T22:52:47.055Z,4.00
2019-04-16T22:55:15.715Z,4.37
2019-04-16T22:57:46.439Z,4.22
2019-04-16T23:00:14.827Z,4.22
2019-04-16T23:02:47.841Z,4.47
2019-04-16T23:05:13.861Z,4.45
2019-04-16T23:07:42.467Z,4.28
2019-04-16T23:10:11.257Z,4.62
2019-04-16T23:12:39.861Z,4.33
2019-04-16T23:15:08.820Z,4.25
2019-04-16T23:17:37.420Z,4.55
2019-04-16T23:20:06.406Z,4.78
2019-04-16T23:22:35.016Z,5.08
2019-04-16T23:25:04.662Z,4.65
2019-04-16T23:27:37.181Z,5.05
2019-04-16T23:30:05.952Z,4.62
2019-04-16T23:32:34.598Z,5.03
2019-04-16T23:35:09.189Z,4.90
2019-04-16T23:37:34.889Z,4.87
2019-04-16T23:40:07.119Z,5.00
2019-04-16T23:42:35.289Z,4.83
2019-04-16T23:45:06.135Z,4.60
2019-04-16T23:47:34.783Z,4.42
2019-04-16T23:50:03.907Z,4.53
2019-04-16T23:52:35.343Z,5.03
2019-04-16T23:55:03.711Z,4.70
2019-04-16T23:57:35.659Z,4.70
